Kiryat Shmone, Israel
Current Conditions -  °F | °C
As of 7:50 PM on Thursday 23 Oct 2014 (Local Time) from LLHA Reporting Station
Scattered Clouds Scattered Clouds  
Wind Chill: 75°   Ceiling: Unl
Heat Index: 75°   Visibility: 6mi
Dew Point: 57°   Wind: 5mph
Humidity: 53%   Direction: 310°NW
Pressure: 30.03"   Gusts: NA
Location:  33.18°N, 35.57°E
Report Text: LLHA 231650Z 31004KT 9999 SCT030 24/14 Q1017
Loading
Personal Weather Stations






























Interactive Weather Map
Tropical Storm Tracking
New forecast layout! Learn more

10-Day Weather Forecast

Advertisements
Track Severe Weather on mobile